This is the latest recevied weather packets stored in our database for station/object KD8FRE. If no packets are shown the sender has not sent any weather packets the latest 1 day(s).
| Time | Temp. | Humidity | Pressure | Rain* | Wind** | Luminosity | Snow |
|---|---|---|---|---|---|---|---|
| 1777997458 | 10.56° C | 80% | 1007.6 hPa | 0 mm | 1.79 m/s, 302° | 119 W/m² | - |
| 1777997155 | 10.56° C | 79% | 1007.6 hPa | 0 mm | 2.24 m/s, 291° | 98 W/m² | - |
| 1777996853 | 10.56° C | 81% | 1007.6 hPa | 0 mm | 0.89 m/s, 317° | 163 W/m² | - |
| 1777996548 | 10.56° C | 80% | 1007.7 hPa | 0 mm | 0 m/s | 125 W/m² | - |
| 1777996245 | 10° C | 80% | 1007.5 hPa | 0 mm | 1.34 m/s, 293° | 74 W/m² | - |
| 1777995941 | 10° C | 78% | 1007.4 hPa | 0 mm | 0.89 m/s, 309° | 100 W/m² | - |
| 1777995637 | 10° C | 78% | 1007.4 hPa | 0 mm | 0.45 m/s, 332° | 92 W/m² | - |
| 1777995335 | 10.56° C | 77% | 1007.3 hPa | 0 mm | 1.79 m/s, 331° | 98 W/m² | - |
| 1777995032 | 10.56° C | 75% | 1007.5 hPa | 0 mm | 0.89 m/s, 332° | 80 W/m² | - |
| 1777994729 | 10.56° C | 74% | 1007.5 hPa | 0 mm | 1.79 m/s, 319° | 73 W/m² | - |
| 1777994425 | 11.11° C | 72% | 1007.3 hPa | 0 mm | 3.58 m/s, 13° | 74 W/m² | - |
| 1777994120 | 11.67° C | 71% | 1007.5 hPa | 0 mm | 1.79 m/s, 310° | 99 W/m² | - |
| 1777993817 | 11.67° C | 70% | 1007.2 hPa | 0 mm | 2.68 m/s, 334° | 88 W/m² | - |
| 1777993514 | 11.67° C | 70% | 1006.9 hPa | 0 mm | 1.34 m/s, 298° | 82 W/m² | - |
| 1777993210 | 12.22° C | 69% | 1006.8 hPa | 0 mm | 1.34 m/s, 331° | 80 W/m² | - |
| 1777992906 | 12.22° C | 67% | 1006.5 hPa | 0 mm | 0.89 m/s, 332° | 87 W/m² | - |
| 1777992604 | 12.22° C | 66% | 1006.6 hPa | 0 mm | 1.34 m/s, 278° | 98 W/m² | - |
| 1777992302 | 12.22° C | 66% | 1006.6 hPa | 0 mm | 2.68 m/s, 288° | 89 W/m² | - |
| 1777991999 | 12.22° C | 64% | 1006.4 hPa | 0 mm | 0.89 m/s, 321° | 100 W/m² | - |
| 1777991697 | 12.22° C | 65% | 1006.4 hPa | 0 mm | 1.34 m/s, 328° | 74 W/m² | - |
| 1777991394 | 12.22° C | 61% | 1006.3 hPa | 0 mm | 3.58 m/s, 264° | 84 W/m² | - |
| 1777991091 | 12.78° C | 61% | 1006.3 hPa | 0 mm | 2.24 m/s, 263° | 92 W/m² | - |
| 1777990788 | 12.78° C | 61% | 1006.4 hPa | 0 mm | 1.79 m/s, 303° | 100 W/m² | - |
| 1777990485 | 12.78° C | 60% | 1006.2 hPa | 0 mm | 3.13 m/s, 310° | 126 W/m² | - |
| 1777990182 | 12.78° C | 61% | 1006.2 hPa | 0 mm | 2.24 m/s, 266° | 137 W/m² | - |
* Rain latest hour (hover to see other rain measurements)
** Current wind speed in m/s (hover to see current wind gust speed)